sensor_id;sensor_type;location;lat;lon;timestamp;P1;P2;P0
73687;PMS7003;62257;48.376;-4.378;2022-12-20T00:01:06;4.25;3.00;2.00
73687;PMS7003;62257;48.376;-4.378;2022-12-20T00:03:43;6.25;1.25;0.75
73687;PMS7003;62257;48.376;-4.378;2022-12-20T00:06:09;10.25;5.25;2.25
73687;PMS7003;62257;48.376;-4.378;2022-12-20T00:08:36;8.00;3.25;2.00
73687;PMS7003;62257;48.376;-4.378;2022-12-20T00:11:02;5.25;4.00;2.25
73687;PMS7003;62257;48.376;-4.378;2022-12-20T00:13:30;6.00;2.50;2.00
73687;PMS7003;62257;48.376;-4.378;2022-12-20T00:16:12;8.25;4.50;3.25
73687;PMS7003;62257;48.376;-4.378;2022-12-20T00:18:39;5.00;5.00;4.00
73687;PMS7003;62257;48.376;-4.378;2022-12-20T00:21:07;10.25;5.00;3.00
73687;PMS7003;62257;48.376;-4.378;2022-12-20T00:23:34;8.00;3.00;2.00
73687;PMS7003;62257;48.376;-4.378;2022-12-20T00:26:04;4.50;3.50;2.00
73687;PMS7003;62257;48.376;-4.378;2022-12-20T00:28:32;5.50;3.50;2.00
73687;PMS7003;62257;48.376;-4.378;2022-12-20T00:30:59;7.75;5.00;3.25
73687;PMS7003;62257;48.376;-4.378;2022-12-20T00:33:25;4.75;4.00;2.00
73687;PMS7003;62257;48.376;-4.378;2022-12-20T00:35:50;4.25;4.25;2.25
73687;PMS7003;62257;48.376;-4.378;2022-12-20T00:38:16;8.50;6.50;4.00
73687;PMS7003;62257;48.376;-4.378;2022-12-20T00:40:42;6.25;3.00;2.00
73687;PMS7003;62257;48.376;-4.378;2022-12-20T00:43:07;5.50;4.00;2.00
73687;PMS7003;62257;48.376;-4.378;2022-12-20T00:45:32;5.00;3.00;1.75
73687;PMS7003;62257;48.376;-4.378;2022-12-20T00:47:58;10.00;6.00;4.00
73687;PMS7003;62257;48.376;-4.378;2022-12-20T00:50:23;6.50;4.00;2.00
73687;PMS7003;62257;48.376;-4.378;2022-12-20T00:52:49;5.50;4.00;2.75
73687;PMS7003;62257;48.376;-4.378;2022-12-20T00:55:14;12.25;5.00;3.00
73687;PMS7003;62257;48.376;-4.378;2022-12-20T00:57:40;5.75;5.00;2.75
73687;PMS7003;62257;48.376;-4.378;2022-12-20T01:00:05;6.50;4.75;3.50
73687;PMS7003;62257;48.376;-4.378;2022-12-20T01:02:31;3.00;3.00;1.75
73687;PMS7003;62257;48.376;-4.378;2022-12-20T01:04:57;5.00;3.50;3.00
73687;PMS7003;62257;48.376;-4.378;2022-12-20T01:07:22;11.00;5.00;2.50
73687;PMS7003;62257;48.376;-4.378;2022-12-20T01:09:48;10.50;5.00;3.50
73687;PMS7003;62257;48.376;-4.378;2022-12-20T01:12:14;10.25;6.00;4.00
73687;PMS7003;62257;48.376;-4.378;2022-12-20T01:14:40;10.00;6.50;3.00
73687;PMS7003;62257;48.376;-4.378;2022-12-20T01:17:06;6.00;4.00;2.25
73687;PMS7003;62257;48.376;-4.378;2022-12-20T01:19:31;8.50;4.50;2.25
73687;PMS7003;62257;48.376;-4.378;2022-12-20T01:21:57;4.00;3.00;2.50
73687;PMS7003;62257;48.376;-4.378;2022-12-20T01:24:22;11.50;6.50;2.00
73687;PMS7003;62257;48.376;-4.378;2022-12-20T01:26:48;9.75;4.00;2.75
73687;PMS7003;62257;48.376;-4.378;2022-12-20T01:29:13;6.50;4.25;3.00
73687;PMS7003;62257;48.376;-4.378;2022-12-20T01:31:39;8.50;4.75;2.25
73687;PMS7003;62257;48.376;-4.378;2022-12-20T01:34:05;5.00;3.50;2.25
73687;PMS7003;62257;48.376;-4.378;2022-12-20T01:36:32;4.00;3.25;2.00
73687;PMS7003;62257;48.376;-4.378;2022-12-20T01:39:02;8.00;5.00;2.00
73687;PMS7003;62257;48.376;-4.378;2022-12-20T01:41:31;4.00;3.25;2.00
73687;PMS7003;62257;48.376;-4.378;2022-12-20T01:43:58;4.00;2.75;2.00
73687;PMS7003;62257;48.376;-4.378;2022-12-20T01:46:26;4.25;3.25;2.00
73687;PMS7003;62257;48.376;-4.378;2022-12-20T01:51:38;5.50;4.00;2.00
73687;PMS7003;62257;48.376;-4.378;2022-12-20T01:54:09;8.75;3.75;2.75
73687;PMS7003;62257;48.376;-4.378;2022-12-20T01:56:39;5.75;4.00;3.00
73687;PMS7003;62257;48.376;-4.378;2022-12-20T01:59:09;7.50;5.50;3.75
73687;PMS7003;62257;48.376;-4.378;2022-12-20T02:01:36;4.25;3.00;2.00
73687;PMS7003;62257;48.376;-4.378;2022-12-20T02:04:02;8.75;4.25;3.00
73687;PMS7003;62257;48.376;-4.378;2022-12-20T02:06:27;11.00;5.75;2.75
73687;PMS7003;62257;48.376;-4.378;2022-12-20T02:08:55;12.00;6.75;4.00
73687;PMS7003;62257;48.376;-4.378;2022-12-20T02:16:50;6.00;5.75;3.00
73687;PMS7003;62257;48.376;-4.378;2022-12-20T02:22:36;7.00;6.00;2.50
73687;PMS7003;62257;48.376;-4.378;2022-12-20T02:30:34;5.75;4.00;3.00
73687;PMS7003;62257;48.376;-4.378;2022-12-20T02:33:06;7.50;2.00;2.00
73687;PMS7003;62257;48.376;-4.378;2022-12-20T02:35:35;2.50;1.00;1.00
73687;PMS7003;62257;48.376;-4.378;2022-12-20T02:38:47;0.00;0.00;0.00
73687;PMS7003;62257;48.376;-4.378;2022-12-20T02:40:54;0.00;0.00;0.00
73687;PMS7003;62257;48.376;-4.378;2022-12-20T02:43:25;0.00;0.00;0.00
73687;PMS7003;62257;48.376;-4.378;2022-12-20T02:46:11;2.25;0.00;0.00
73687;PMS7003;62257;48.376;-4.378;2022-12-20T02:48:38;0.00;0.00;0.00
73687;PMS7003;62257;48.376;-4.378;2022-12-20T02:51:05;0.00;0.00;0.00
73687;PMS7003;62257;48.376;-4.378;2022-12-20T02:53:34;0.00;0.00;0.00
73687;PMS7003;62257;48.376;-4.378;2022-12-20T02:56:04;1.00;0.00;0.00
73687;PMS7003;62257;48.376;-4.378;2022-12-20T02:58:42;1.00;0.50;0.25
73687;PMS7003;62257;48.376;-4.378;2022-12-20T03:01:27;2.00;0.00;0.00
73687;PMS7003;62257;48.376;-4.378;2022-12-20T03:03:57;3.00;1.00;0.00
73687;PMS7003;62257;48.376;-4.378;2022-12-20T03:06:23;6.50;0.75;0.00
73687;PMS7003;62257;48.376;-4.378;2022-12-20T03:08:49;3.00;0.00;0.00
73687;PMS7003;62257;48.376;-4.378;2022-12-20T03:11:14;3.50;1.25;0.25
73687;PMS7003;62257;48.376;-4.378;2022-12-20T03:13:40;1.75;1.00;0.50
73687;PMS7003;62257;48.376;-4.378;2022-12-20T03:16:06;1.00;1.00;0.00
73687;PMS7003;62257;48.376;-4.378;2022-12-20T03:18:32;1.50;1.25;1.00
73687;PMS7003;62257;48.376;-4.378;2022-12-20T03:20:57;3.25;1.00;1.00
73687;PMS7003;62257;48.376;-4.378;2022-12-20T03:23:23;3.50;2.00;1.00
73687;PMS7003;62257;48.376;-4.378;2022-12-20T03:25:48;2.75;2.50;1.00
73687;PMS7003;62257;48.376;-4.378;2022-12-20T03:28:14;3.00;2.50;2.00
73687;PMS7003;62257;48.376;-4.378;2022-12-20T03:30:39;7.25;3.00;1.00
73687;PMS7003;62257;48.376;-4.378;2022-12-20T03:33:05;2.75;2.75;2.00
73687;PMS7003;62257;48.376;-4.378;2022-12-20T03:35:30;3.00;2.00;1.00
73687;PMS7003;62257;48.376;-4.378;2022-12-20T03:37:56;4.25;2.00;1.00
73687;PMS7003;62257;48.376;-4.378;2022-12-20T03:40:21;3.25;2.25;1.50
73687;PMS7003;62257;48.376;-4.378;2022-12-20T03:42:47;4.25;2.00;1.00
73687;PMS7003;62257;48.376;-4.378;2022-12-20T03:45:13;6.25;2.25;2.00
73687;PMS7003;62257;48.376;-4.378;2022-12-20T03:47:38;4.00;3.00;2.00
73687;PMS7003;62257;48.376;-4.378;2022-12-20T03:50:04;6.50;3.25;1.50
73687;PMS7003;62257;48.376;-4.378;2022-12-20T03:52:31;3.25;2.00;1.00
73687;PMS7003;62257;48.376;-4.378;2022-12-20T03:54:56;0.00;0.00;0.00
73687;PMS7003;62257;48.376;-4.378;2022-12-20T03:57:22;6.50;2.00;0.50
73687;PMS7003;62257;48.376;-4.378;2022-12-20T03:59:47;2.00;0.00;0.00
73687;PMS7003;62257;48.376;-4.378;2022-12-20T04:02:13;1.25;1.00;0.75
73687;PMS7003;62257;48.376;-4.378;2022-12-20T04:04:38;2.50;2.50;1.00
73687;PMS7003;62257;48.376;-4.378;2022-12-20T04:07:04;2.25;1.00;1.00
73687;PMS7003;62257;48.376;-4.378;2022-12-20T04:09:29;0.25;0.25;0.00
73687;PMS7003;62257;48.376;-4.378;2022-12-20T04:11:55;0.75;0.00;0.00
73687;PMS7003;62257;48.376;-4.378;2022-12-20T04:14:20;3.00;0.00;0.00
73687;PMS7003;62257;48.376;-4.378;2022-12-20T04:16:45;1.00;1.00;0.75
73687;PMS7003;62257;48.376;-4.378;2022-12-20T04:19:11;0.50;0.00;0.00
73687;PMS7003;62257;48.376;-4.378;2022-12-20T04:21:36;3.25;0.25;0.00
73687;PMS7003;62257;48.376;-4.378;2022-12-20T04:24:02;2.75;1.00;0.00
73687;PMS7003;62257;48.376;-4.378;2022-12-20T04:26:28;4.00;1.00;1.00
73687;PMS7003;62257;48.376;-4.378;2022-12-20T04:28:54;3.00;0.00;0.00
73687;PMS7003;62257;48.376;-4.378;2022-12-20T04:31:20;0.25;0.00;0.00
73687;PMS7003;62257;48.376;-4.378;2022-12-20T04:33:45;1.00;0.00;0.00
73687;PMS7003;62257;48.376;-4.378;2022-12-20T04:36:12;0.00;0.00;0.00
73687;PMS7003;62257;48.376;-4.378;2022-12-20T04:38:38;1.75;0.00;0.00
73687;PMS7003;62257;48.376;-4.378;2022-12-20T04:41:03;2.00;0.25;0.00
73687;PMS7003;62257;48.376;-4.378;2022-12-20T04:43:29;3.75;1.00;0.00
73687;PMS7003;62257;48.376;-4.378;2022-12-20T04:45:54;1.00;1.00;1.00
73687;PMS7003;62257;48.376;-4.378;2022-12-20T04:48:21;4.25;0.75;0.25
73687;PMS7003;62257;48.376;-4.378;2022-12-20T04:50:49;1.25;1.00;0.25
73687;PMS7003;62257;48.376;-4.378;2022-12-20T04:53:15;1.00;0.00;0.00
73687;PMS7003;62257;48.376;-4.378;2022-12-20T04:55:59;0.50;0.00;0.00
73687;PMS7003;62257;48.376;-4.378;2022-12-20T04:58:25;2.25;0.00;0.00
73687;PMS7003;62257;48.376;-4.378;2022-12-20T05:00:50;1.00;0.00;0.00
73687;PMS7003;62257;48.376;-4.378;2022-12-20T05:03:16;0.00;0.00;0.00
73687;PMS7003;62257;48.376;-4.378;2022-12-20T05:05:46;0.75;0.00;0.00
73687;PMS7003;62257;48.376;-4.378;2022-12-20T05:08:11;1.75;1.00;0.00
73687;PMS7003;62257;48.376;-4.378;2022-12-20T05:10:37;2.50;1.00;1.00
73687;PMS7003;62257;48.376;-4.378;2022-12-20T05:13:03;2.50;0.00;0.00
73687;PMS7003;62257;48.376;-4.378;2022-12-20T05:15:28;0.00;0.00;0.00
73687;PMS7003;62257;48.376;-4.378;2022-12-20T05:17:54;0.75;0.75;0.00
73687;PMS7003;62257;48.376;-4.378;2022-12-20T05:20:24;3.00;0.00;0.00
73687;PMS7003;62257;48.376;-4.378;2022-12-20T05:22:53;2.00;1.00;0.00
73687;PMS7003;62257;48.376;-4.378;2022-12-20T05:25:38;2.25;1.25;0.50
73687;PMS7003;62257;48.376;-4.378;2022-12-20T05:28:34;2.25;0.00;0.00
73687;PMS7003;62257;48.376;-4.378;2022-12-20T05:31:00;0.00;0.00;0.00
73687;PMS7003;62257;48.376;-4.378;2022-12-20T05:33:27;0.00;0.00;0.00
73687;PMS7003;62257;48.376;-4.378;2022-12-20T05:35:53;2.00;0.00;0.00
73687;PMS7003;62257;48.376;-4.378;2022-12-20T05:38:19;1.00;0.00;0.00
73687;PMS7003;62257;48.376;-4.378;2022-12-20T05:40:47;1.50;1.00;0.00
73687;PMS7003;62257;48.376;-4.378;2022-12-20T05:43:14;0.75;0.75;0.00
73687;PMS7003;62257;48.376;-4.378;2022-12-20T05:45:43;0.75;0.75;0.00
73687;PMS7003;62257;48.376;-4.378;2022-12-20T05:48:13;0.00;0.00;0.00
73687;PMS7003;62257;48.376;-4.378;2022-12-20T05:50:39;0.25;0.25;0.00
73687;PMS7003;62257;48.376;-4.378;2022-12-20T05:53:05;0.00;0.00;0.00
73687;PMS7003;62257;48.376;-4.378;2022-12-20T05:55:30;2.00;0.00;0.00
73687;PMS7003;62257;48.376;-4.378;2022-12-20T05:57:55;0.00;0.00;0.00
73687;PMS7003;62257;48.376;-4.378;2022-12-20T06:00:21;0.00;0.00;0.00
73687;PMS7003;62257;48.376;-4.378;2022-12-20T06:02:46;2.00;0.00;0.00
73687;PMS7003;62257;48.376;-4.378;2022-12-20T06:05:12;0.00;0.00;0.00
73687;PMS7003;62257;48.376;-4.378;2022-12-20T06:07:37;2.00;0.00;0.00
73687;PMS7003;62257;48.376;-4.378;2022-12-20T06:10:03;1.25;0.00;0.00
73687;PMS7003;62257;48.376;-4.378;2022-12-20T06:12:28;1.25;0.25;0.00
73687;PMS7003;62257;48.376;-4.378;2022-12-20T06:14:54;1.50;0.25;0.25
73687;PMS7003;62257;48.376;-4.378;2022-12-20T06:17:19;1.00;0.00;0.00
73687;PMS7003;62257;48.376;-4.378;2022-12-20T06:19:45;4.00;0.00;0.00
73687;PMS7003;62257;48.376;-4.378;2022-12-20T06:22:11;2.50;0.00;0.00
73687;PMS7003;62257;48.376;-4.378;2022-12-20T06:24:37;1.00;0.00;0.00
73687;PMS7003;62257;48.376;-4.378;2022-12-20T06:27:03;1.50;0.75;0.50
73687;PMS7003;62257;48.376;-4.378;2022-12-20T06:29:31;2.50;1.00;0.50
73687;PMS7003;62257;48.376;-4.378;2022-12-20T06:31:57;2.00;1.00;0.75
73687;PMS7003;62257;48.376;-4.378;2022-12-20T06:34:22;2.00;1.00;0.25
73687;PMS7003;62257;48.376;-4.378;2022-12-20T06:36:47;3.50;1.00;1.00
73687;PMS7003;62257;48.376;-4.378;2022-12-20T06:39:13;1.25;0.75;0.25
73687;PMS7003;62257;48.376;-4.378;2022-12-20T06:41:39;0.00;0.00;0.00
73687;PMS7003;62257;48.376;-4.378;2022-12-20T06:44:05;2.00;1.00;0.00
73687;PMS7003;62257;48.376;-4.378;2022-12-20T06:46:31;1.00;1.00;0.50
73687;PMS7003;62257;48.376;-4.378;2022-12-20T06:48:56;2.50;0.00;0.00
73687;PMS7003;62257;48.376;-4.378;2022-12-20T06:51:22;1.00;1.00;0.00
73687;PMS7003;62257;48.376;-4.378;2022-12-20T06:53:48;1.00;1.00;1.00
73687;PMS7003;62257;48.376;-4.378;2022-12-20T06:56:13;1.00;1.00;1.00
73687;PMS7003;62257;48.376;-4.378;2022-12-20T06:58:39;1.25;0.00;0.00
73687;PMS7003;62257;48.376;-4.378;2022-12-20T07:01:04;4.00;2.00;1.25
73687;PMS7003;62257;48.376;-4.378;2022-12-20T07:03:30;0.25;0.25;0.00
73687;PMS7003;62257;48.376;-4.378;2022-12-20T07:05:55;1.50;1.00;1.00
73687;PMS7003;62257;48.376;-4.378;2022-12-20T07:08:21;1.00;1.00;0.50
73687;PMS7003;62257;48.376;-4.378;2022-12-20T07:10:47;1.00;1.00;1.00
73687;PMS7003;62257;48.376;-4.378;2022-12-20T07:13:13;0.00;0.00;0.00
73687;PMS7003;62257;48.376;-4.378;2022-12-20T07:15:38;3.00;0.00;0.00
73687;PMS7003;62257;48.376;-4.378;2022-12-20T07:18:04;1.50;1.00;0.25
73687;PMS7003;62257;48.376;-4.378;2022-12-20T07:20:31;1.50;0.00;0.00
73687;PMS7003;62257;48.376;-4.378;2022-12-20T07:22:56;0.50;0.00;0.00
73687;PMS7003;62257;48.376;-4.378;2022-12-20T07:25:22;1.00;1.00;0.00
73687;PMS7003;62257;48.376;-4.378;2022-12-20T07:27:49;1.00;0.00;0.00
73687;PMS7003;62257;48.376;-4.378;2022-12-20T07:30:15;3.25;0.75;0.50
73687;PMS7003;62257;48.376;-4.378;2022-12-20T07:32:42;4.00;1.50;0.00
73687;PMS7003;62257;48.376;-4.378;2022-12-20T07:35:08;1.00;0.00;0.00
73687;PMS7003;62257;48.376;-4.378;2022-12-20T07:37:34;0.00;0.00;0.00
73687;PMS7003;62257;48.376;-4.378;2022-12-20T07:40:00;1.75;1.50;1.00
73687;PMS7003;62257;48.376;-4.378;2022-12-20T07:42:25;1.00;0.75;0.00
73687;PMS7003;62257;48.376;-4.378;2022-12-20T07:44:51;2.00;1.75;1.25
73687;PMS7003;62257;48.376;-4.378;2022-12-20T07:47:16;1.00;1.00;0.25
73687;PMS7003;62257;48.376;-4.378;2022-12-20T07:49:42;1.00;0.00;0.00
73687;PMS7003;62257;48.376;-4.378;2022-12-20T07:52:07;1.25;0.75;0.50
73687;PMS7003;62257;48.376;-4.378;2022-12-20T07:54:36;1.50;0.25;0.00
73687;PMS7003;62257;48.376;-4.378;2022-12-20T07:57:11;1.75;1.00;1.00
73687;PMS7003;62257;48.376;-4.378;2022-12-20T07:59:42;2.25;0.50;0.25
73687;PMS7003;62257;48.376;-4.378;2022-12-20T08:02:13;2.00;1.00;1.00
73687;PMS7003;62257;48.376;-4.378;2022-12-20T08:04:44;3.00;2.50;2.00
73687;PMS7003;62257;48.376;-4.378;2022-12-20T08:07:11;9.50;4.00;2.75
73687;PMS7003;62257;48.376;-4.378;2022-12-20T08:09:38;14.00;10.25;6.00
73687;PMS7003;62257;48.376;-4.378;2022-12-20T08:12:08;13.50;7.25;4.00
73687;PMS7003;62257;48.376;-4.378;2022-12-20T08:14:36;6.50;3.00;2.00
73687;PMS7003;62257;48.376;-4.378;2022-12-20T08:17:02;2.50;1.25;1.00
73687;PMS7003;62257;48.376;-4.378;2022-12-20T08:19:27;3.25;1.50;1.00
73687;PMS7003;62257;48.376;-4.378;2022-12-20T08:21:53;1.00;1.00;1.00
73687;PMS7003;62257;48.376;-4.378;2022-12-20T08:24:18;1.00;0.00;0.00
73687;PMS7003;62257;48.376;-4.378;2022-12-20T08:26:44;4.50;2.25;1.00
73687;PMS7003;62257;48.376;-4.378;2022-12-20T08:29:09;2.50;1.75;1.75
73687;PMS7003;62257;48.376;-4.378;2022-12-20T08:31:38;6.25;2.00;1.00
73687;PMS7003;62257;48.376;-4.378;2022-12-20T08:34:05;4.00;1.75;1.00
73687;PMS7003;62257;48.376;-4.378;2022-12-20T08:36:30;2.50;1.00;0.00
73687;PMS7003;62257;48.376;-4.378;2022-12-20T08:38:55;2.75;1.75;1.00
73687;PMS7003;62257;48.376;-4.378;2022-12-20T08:41:21;1.00;1.00;1.00
73687;PMS7003;62257;48.376;-4.378;2022-12-20T08:43:46;4.00;2.00;1.00
73687;PMS7003;62257;48.376;-4.378;2022-12-20T08:46:12;1.75;1.75;1.00
73687;PMS7003;62257;48.376;-4.378;2022-12-20T08:48:38;4.00;3.00;1.00
73687;PMS7003;62257;48.376;-4.378;2022-12-20T08:51:05;1.50;1.00;0.50
73687;PMS7003;62257;48.376;-4.378;2022-12-20T08:53:34;3.00;1.25;1.00
73687;PMS7003;62257;48.376;-4.378;2022-12-20T08:58:30;3.00;2.25;1.75
73687;PMS7003;62257;48.376;-4.378;2022-12-20T09:00:59;4.00;2.00;1.00
73687;PMS7003;62257;48.376;-4.378;2022-12-20T09:03:28;3.00;2.25;2.00
73687;PMS7003;62257;48.376;-4.378;2022-12-20T09:05:54;10.00;6.00;5.00
73687;PMS7003;62257;48.376;-4.378;2022-12-20T09:08:19;9.50;9.00;7.00
73687;PMS7003;62257;48.376;-4.378;2022-12-20T09:10:45;12.00;12.00;8.75
73687;PMS7003;62257;48.376;-4.378;2022-12-20T09:13:10;17.25;12.50;8.75
73687;PMS7003;62257;48.376;-4.378;2022-12-20T09:15:36;13.25;12.25;8.75
73687;PMS7003;62257;48.376;-4.378;2022-12-20T09:18:01;7.25;4.50;3.75
73687;PMS7003;62257;48.376;-4.378;2022-12-20T09:20:27;10.25;8.25;6.00
73687;PMS7003;62257;48.376;-4.378;2022-12-20T09:22:53;13.00;11.25;8.00
73687;PMS7003;62257;48.376;-4.378;2022-12-20T09:25:19;15.25;9.25;8.00
73687;PMS7003;62257;48.376;-4.378;2022-12-20T09:27:44;8.00;6.75;6.00
73687;PMS7003;62257;48.376;-4.378;2022-12-20T09:30:10;3.25;3.25;2.25
73687;PMS7003;62257;48.376;-4.378;2022-12-20T09:32:35;6.50;4.50;4.00
73687;PMS7003;62257;48.376;-4.378;2022-12-20T09:35:01;4.00;2.00;1.75
73687;PMS7003;62257;48.376;-4.378;2022-12-20T09:37:31;3.25;2.00;2.00
73687;PMS7003;62257;48.376;-4.378;2022-12-20T09:39:57;8.00;7.75;6.75
73687;PMS7003;62257;48.376;-4.378;2022-12-20T09:42:23;11.00;7.00;5.50
73687;PMS7003;62257;48.376;-4.378;2022-12-20T09:44:52;6.75;4.50;4.00
73687;PMS7003;62257;48.376;-4.378;2022-12-20T09:47:24;3.50;3.50;2.50
73687;PMS7003;62257;48.376;-4.378;2022-12-20T09:49:52;2.00;2.00;2.00
73687;PMS7003;62257;48.376;-4.378;2022-12-20T10:00:19;3.00;2.00;1.25
73687;PMS7003;62257;48.376;-4.378;2022-12-20T10:02:45;3.00;2.00;2.00
73687;PMS7003;62257;48.376;-4.378;2022-12-20T10:08:33;1.00;1.00;0.75
73687;PMS7003;62257;48.376;-4.378;2022-12-20T10:11:17;6.00;3.50;2.00
73687;PMS7003;62257;48.376;-4.378;2022-12-20T10:16:50;4.00;2.00;2.00
73687;PMS7003;62257;48.376;-4.378;2022-12-20T10:22:21;4.75;2.25;2.00
73687;PMS7003;62257;48.376;-4.378;2022-12-20T10:27:34;6.00;2.00;1.00
73687;PMS7003;62257;48.376;-4.378;2022-12-20T10:30:04;5.00;1.00;0.75
73687;PMS7003;62257;48.376;-4.378;2022-12-20T10:32:37;3.25;3.00;2.00
73687;PMS7003;62257;48.376;-4.378;2022-12-20T10:37:35;0.75;0.75;0.25
73687;PMS7003;62257;48.376;-4.378;2022-12-20T10:40:00;2.00;1.75;0.75
73687;PMS7003;62257;48.376;-4.378;2022-12-20T10:42:29;2.00;1.00;0.25
73687;PMS7003;62257;48.376;-4.378;2022-12-20T10:45:02;2.25;1.00;0.75
73687;PMS7003;62257;48.376;-4.378;2022-12-20T10:47:48;1.75;1.75;1.00
73687;PMS7003;62257;48.376;-4.378;2022-12-20T10:50:19;1.50;1.00;1.00
73687;PMS7003;62257;48.376;-4.378;2022-12-20T10:55:37;2.00;0.25;0.25
73687;PMS7003;62257;48.376;-4.378;2022-12-20T10:58:27;2.75;0.00;0.00
73687;PMS7003;62257;48.376;-4.378;2022-12-20T11:01:10;3.50;0.00;0.00
73687;PMS7003;62257;48.376;-4.378;2022-12-20T11:04:00;1.75;1.00;0.75
73687;PMS7003;62257;48.376;-4.378;2022-12-20T11:14:22;1.00;1.00;1.00
73687;PMS7003;62257;48.376;-4.378;2022-12-20T11:16:48;1.50;0.25;0.25
73687;PMS7003;62257;48.376;-4.378;2022-12-20T11:22:36;0.25;0.25;0.00
73687;PMS7003;62257;48.376;-4.378;2022-12-20T11:25:21;3.00;0.00;0.00
73687;PMS7003;62257;48.376;-4.378;2022-12-20T11:28:10;1.50;0.00;0.00
73687;PMS7003;62257;48.376;-4.378;2022-12-20T11:33:12;2.00;0.00;0.00
73687;PMS7003;62257;48.376;-4.378;2022-12-20T11:36:07;2.00;0.00;0.00
73687;PMS7003;62257;48.376;-4.378;2022-12-20T11:38:45;2.00;0.75;0.00
73687;PMS7003;62257;48.376;-4.378;2022-12-20T11:42:16;2.00;0.00;0.00
73687;PMS7003;62257;48.376;-4.378;2022-12-20T11:44:37;0.25;0.25;0.00
73687;PMS7003;62257;48.376;-4.378;2022-12-20T11:52:59;1.00;0.75;0.00
73687;PMS7003;62257;48.376;-4.378;2022-12-20T11:55:32;0.00;0.00;0.00
73687;PMS7003;62257;48.376;-4.378;2022-12-20T11:58:11;2.50;0.25;0.25
73687;PMS7003;62257;48.376;-4.378;2022-12-20T12:00:37;1.50;0.00;0.00
73687;PMS7003;62257;48.376;-4.378;2022-12-20T12:03:40;0.25;0.00;0.00
73687;PMS7003;62257;48.376;-4.378;2022-12-20T12:11:04;0.50;0.50;0.00
73687;PMS7003;62257;48.376;-4.378;2022-12-20T12:13:36;0.75;0.50;0.00
73687;PMS7003;62257;48.376;-4.378;2022-12-20T12:18:33;2.00;1.00;1.00
73687;PMS7003;62257;48.376;-4.378;2022-12-20T12:25:54;1.75;1.75;1.00
73687;PMS7003;62257;48.376;-4.378;2022-12-20T12:28:23;3.00;1.00;0.75
73687;PMS7003;62257;48.376;-4.378;2022-12-20T12:30:53;2.00;1.00;1.00
73687;PMS7003;62257;48.376;-4.378;2022-12-20T12:33:25;2.00;0.75;0.00
73687;PMS7003;62257;48.376;-4.378;2022-12-20T12:43:43;1.00;1.00;1.00
73687;PMS7003;62257;48.376;-4.378;2022-12-20T12:46:33;4.25;1.00;0.25
73687;PMS7003;62257;48.376;-4.378;2022-12-20T12:49:01;4.00;1.00;0.75
73687;PMS7003;62257;48.376;-4.378;2022-12-20T12:51:40;7.50;2.00;1.00
73687;PMS7003;62257;48.376;-4.378;2022-12-20T12:56:40;6.00;3.00;2.00
73687;PMS7003;62257;48.376;-4.378;2022-12-20T13:06:52;0.25;0.25;0.00
73687;PMS7003;62257;48.376;-4.378;2022-12-20T13:11:52;0.75;0.50;0.00
73687;PMS7003;62257;48.376;-4.378;2022-12-20T13:16:45;1.00;0.75;0.50
73687;PMS7003;62257;48.376;-4.378;2022-12-20T13:19:14;2.00;1.00;0.00
73687;PMS7003;62257;48.376;-4.378;2022-12-20T13:22:35;3.00;0.50;0.00
73687;PMS7003;62257;48.376;-4.378;2022-12-20T13:27:48;2.00;1.00;1.00
73687;PMS7003;62257;48.376;-4.378;2022-12-20T13:40:43;0.00;0.00;0.00
73687;PMS7003;62257;48.376;-4.378;2022-12-20T13:45:45;0.00;0.00;0.00
73687;PMS7003;62257;48.376;-4.378;2022-12-20T13:48:16;1.75;1.00;0.00
73687;PMS7003;62257;48.376;-4.378;2022-12-20T13:50:51;1.50;0.00;0.00
73687;PMS7003;62257;48.376;-4.378;2022-12-20T13:53:18;0.75;0.50;0.00
73687;PMS7003;62257;48.376;-4.378;2022-12-20T13:55:51;0.00;0.00;0.00
73687;PMS7003;62257;48.376;-4.378;2022-12-20T13:58:27;0.00;0.00;0.00
73687;PMS7003;62257;48.376;-4.378;2022-12-20T14:01:05;2.25;0.75;0.50
73687;PMS7003;62257;48.376;-4.378;2022-12-20T14:03:39;1.00;1.00;0.00
73687;PMS7003;62257;48.376;-4.378;2022-12-20T14:06:08;1.00;0.00;0.00
73687;PMS7003;62257;48.376;-4.378;2022-12-20T14:08:37;1.00;0.75;0.00
73687;PMS7003;62257;48.376;-4.378;2022-12-20T14:11:10;1.00;1.00;1.00
73687;PMS7003;62257;48.376;-4.378;2022-12-20T14:13:36;2.75;1.25;1.00
73687;PMS7003;62257;48.376;-4.378;2022-12-20T14:16:06;0.00;0.00;0.00
73687;PMS7003;62257;48.376;-4.378;2022-12-20T14:18:35;0.25;0.00;0.00
73687;PMS7003;62257;48.376;-4.378;2022-12-20T14:21:02;2.25;1.00;0.00
73687;PMS7003;62257;48.376;-4.378;2022-12-20T14:26:04;3.00;0.75;0.50
73687;PMS7003;62257;48.376;-4.378;2022-12-20T14:28:41;3.50;1.50;1.50
73687;PMS7003;62257;48.376;-4.378;2022-12-20T14:31:21;3.00;2.00;1.00
73687;PMS7003;62257;48.376;-4.378;2022-12-20T14:34:02;7.00;7.00;5.00
73687;PMS7003;62257;48.376;-4.378;2022-12-20T14:36:49;4.75;3.00;2.75
73687;PMS7003;62257;48.376;-4.378;2022-12-20T14:39:22;2.00;2.00;1.00
73687;PMS7003;62257;48.376;-4.378;2022-12-20T14:42:11;2.00;2.00;1.75
73687;PMS7003;62257;48.376;-4.378;2022-12-20T14:44:38;1.00;1.00;0.00
73687;PMS7003;62257;48.376;-4.378;2022-12-20T14:47:24;1.75;1.00;0.50
73687;PMS7003;62257;48.376;-4.378;2022-12-20T14:50:01;1.00;1.00;0.00
73687;PMS7003;62257;48.376;-4.378;2022-12-20T14:52:33;1.75;0.75;0.00
73687;PMS7003;62257;48.376;-4.378;2022-12-20T14:55:13;2.75;0.75;0.50
73687;PMS7003;62257;48.376;-4.378;2022-12-20T14:57:46;1.00;0.00;0.00
73687;PMS7003;62257;48.376;-4.378;2022-12-20T15:00:31;4.25;1.00;0.00
73687;PMS7003;62257;48.376;-4.378;2022-12-20T15:05:45;0.75;0.75;0.00
73687;PMS7003;62257;48.376;-4.378;2022-12-20T15:08:19;0.50;0.00;0.00
73687;PMS7003;62257;48.376;-4.378;2022-12-20T15:10:48;2.25;1.00;0.00
73687;PMS7003;62257;48.376;-4.378;2022-12-20T15:13:47;1.00;1.00;0.50
73687;PMS7003;62257;48.376;-4.378;2022-12-20T15:16:16;1.00;1.00;0.00
73687;PMS7003;62257;48.376;-4.378;2022-12-20T15:18:59;2.00;1.00;0.00
73687;PMS7003;62257;48.376;-4.378;2022-12-20T15:21:30;1.75;0.75;0.00
73687;PMS7003;62257;48.376;-4.378;2022-12-20T15:23:59;3.00;1.00;1.00
73687;PMS7003;62257;48.376;-4.378;2022-12-20T15:26:27;1.00;1.00;1.00
73687;PMS7003;62257;48.376;-4.378;2022-12-20T15:28:55;1.00;1.00;0.75
73687;PMS7003;62257;48.376;-4.378;2022-12-20T15:31:21;2.00;1.00;0.75
73687;PMS7003;62257;48.376;-4.378;2022-12-20T15:33:48;4.00;0.50;0.25
73687;PMS7003;62257;48.376;-4.378;2022-12-20T15:38:42;3.50;2.00;1.00
73687;PMS7003;62257;48.376;-4.378;2022-12-20T15:41:10;2.50;1.00;0.00
73687;PMS7003;62257;48.376;-4.378;2022-12-20T15:43:44;0.00;0.00;0.00
73687;PMS7003;62257;48.376;-4.378;2022-12-20T15:46:09;2.50;0.00;0.00
73687;PMS7003;62257;48.376;-4.378;2022-12-20T15:48:35;1.00;0.50;0.00
73687;PMS7003;62257;48.376;-4.378;2022-12-20T15:51:00;1.25;0.75;0.75
73687;PMS7003;62257;48.376;-4.378;2022-12-20T15:53:31;2.00;1.00;1.00
73687;PMS7003;62257;48.376;-4.378;2022-12-20T15:55:58;0.75;0.75;0.00
73687;PMS7003;62257;48.376;-4.378;2022-12-20T15:58:24;1.75;1.00;0.00
73687;PMS7003;62257;48.376;-4.378;2022-12-20T16:00:52;3.00;0.75;0.00
73687;PMS7003;62257;48.376;-4.378;2022-12-20T16:03:20;2.50;1.00;0.25
73687;PMS7003;62257;48.376;-4.378;2022-12-20T16:05:47;2.25;1.00;1.00
73687;PMS7003;62257;48.376;-4.378;2022-12-20T16:08:16;5.25;1.50;1.00
73687;PMS7003;62257;48.376;-4.378;2022-12-20T16:10:43;4.00;4.00;2.25
73687;PMS7003;62257;48.376;-4.378;2022-12-20T16:13:19;10.00;8.00;6.50
73687;PMS7003;62257;48.376;-4.378;2022-12-20T16:15:46;13.75;9.50;6.75
73687;PMS7003;62257;48.376;-4.378;2022-12-20T16:18:11;27.50;23.00;15.75
73687;PMS7003;62257;48.376;-4.378;2022-12-20T16:20:37;32.25;24.75;13.50
73687;PMS7003;62257;48.376;-4.378;2022-12-20T16:23:03;21.50;17.25;11.00